sensor_id;sensor_type;location;lat;lon;timestamp;pressure;altitude;pressure_sealevel;temperature;humidity
7333;BME280;3707;43.618;25.342;2022-07-23T00:00:11;100084.03;;;25.44;56.94
7333;BME280;3707;43.618;25.342;2022-07-23T00:02:40;100089.28;;;25.45;57.48
7333;BME280;3707;43.618;25.342;2022-07-23T00:05:08;100099.22;;;25.40;55.75
7333;BME280;3707;43.618;25.342;2022-07-23T00:07:35;100097.72;;;25.35;55.57
7333;BME280;3707;43.618;25.342;2022-07-23T00:10:02;100103.81;;;25.37;55.32
7333;BME280;3707;43.618;25.342;2022-07-23T00:12:29;100109.94;;;25.39;54.72
7333;BME280;3707;43.618;25.342;2022-07-23T00:14:56;100098.88;;;25.29;55.15
7333;BME280;3707;43.618;25.342;2022-07-23T00:17:23;100111.94;;;25.34;55.41
7333;BME280;3707;43.618;25.342;2022-07-23T00:19:51;100111.78;;;25.37;55.85
7333;BME280;3707;43.618;25.342;2022-07-23T00:22:19;100115.25;;;25.39;54.95
7333;BME280;3707;43.618;25.342;2022-07-23T00:24:46;100109.41;;;25.31;54.51
7333;BME280;3707;43.618;25.342;2022-07-23T00:27:12;100115.78;;;25.27;55.08
7333;BME280;3707;43.618;25.342;2022-07-23T00:29:39;100091.59;;;25.14;57.14
7333;BME280;3707;43.618;25.342;2022-07-23T00:32:06;100117.38;;;25.31;64.97
7333;BME280;3707;43.618;25.342;2022-07-23T00:34:33;100116.66;;;25.27;72.60
7333;BME280;3707;43.618;25.342;2022-07-23T00:37:01;100123.63;;;25.09;75.64
7333;BME280;3707;43.618;25.342;2022-07-23T00:39:28;100124.69;;;25.05;85.39
7333;BME280;3707;43.618;25.342;2022-07-23T00:41:54;100101.41;;;24.72;96.95
7333;BME280;3707;43.618;25.342;2022-07-23T00:44:23;100106.91;;;24.87;100.00
7333;BME280;3707;43.618;25.342;2022-07-23T00:46:52;100117.41;;;24.90;100.00
7333;BME280;3707;43.618;25.342;2022-07-23T00:49:19;100121.78;;;24.91;100.00
7333;BME280;3707;43.618;25.342;2022-07-23T00:51:47;100116.91;;;24.81;100.00
7333;BME280;3707;43.618;25.342;2022-07-23T00:54:16;100092.28;;;24.57;100.00
7333;BME280;3707;43.618;25.342;2022-07-23T00:56:43;100130.50;;;24.51;100.00
7333;BME280;3707;43.618;25.342;2022-07-23T00:59:10;100102.84;;;24.37;100.00
7333;BME280;3707;43.618;25.342;2022-07-23T01:01:38;100132.50;;;24.46;100.00
7333;BME280;3707;43.618;25.342;2022-07-23T01:04:05;100127.38;;;24.42;100.00
7333;BME280;3707;43.618;25.342;2022-07-23T01:06:34;100132.88;;;24.37;100.00
7333;BME280;3707;43.618;25.342;2022-07-23T01:09:03;100112.66;;;24.35;100.00
7333;BME280;3707;43.618;25.342;2022-07-23T01:11:33;100125.59;;;24.42;100.00
7333;BME280;3707;43.618;25.342;2022-07-23T01:14:08;100116.47;;;24.28;100.00
7333;BME280;3707;43.618;25.342;2022-07-23T01:16:35;100124.19;;;24.34;100.00
7333;BME280;3707;43.618;25.342;2022-07-23T01:19:02;100089.69;;;24.13;100.00
7333;BME280;3707;43.618;25.342;2022-07-23T01:21:33;100132.38;;;24.28;100.00
7333;BME280;3707;43.618;25.342;2022-07-23T01:24:04;100117.53;;;24.24;100.00
7333;BME280;3707;43.618;25.342;2022-07-23T01:26:31;100125.59;;;24.21;100.00
7333;BME280;3707;43.618;25.342;2022-07-23T01:28:58;100097.66;;;24.12;100.00
7333;BME280;3707;43.618;25.342;2022-07-23T01:31:25;100121.72;;;24.29;100.00
7333;BME280;3707;43.618;25.342;2022-07-23T01:33:52;100109.56;;;24.24;100.00
7333;BME280;3707;43.618;25.342;2022-07-23T01:36:19;100108.72;;;24.23;100.00
7333;BME280;3707;43.618;25.342;2022-07-23T01:38:47;100110.31;;;24.27;100.00
7333;BME280;3707;43.618;25.342;2022-07-23T01:41:15;100103.19;;;24.29;96.71
7333;BME280;3707;43.618;25.342;2022-07-23T01:43:42;100114.41;;;24.36;90.97
7333;BME280;3707;43.618;25.342;2022-07-23T01:46:09;100111.75;;;24.36;87.16
7333;BME280;3707;43.618;25.342;2022-07-23T01:48:35;100100.44;;;24.31;81.76
7333;BME280;3707;43.618;25.342;2022-07-23T01:51:03;100088.03;;;24.33;76.00
7333;BME280;3707;43.618;25.342;2022-07-23T01:53:29;100072.13;;;24.33;72.30
7333;BME280;3707;43.618;25.342;2022-07-23T01:55:57;100079.66;;;24.42;71.63
7333;BME280;3707;43.618;25.342;2022-07-23T01:58:26;100097.59;;;24.57;69.32
7333;BME280;3707;43.618;25.342;2022-07-23T02:00:53;100102.03;;;24.56;66.16
7333;BME280;3707;43.618;25.342;2022-07-23T02:03:20;100102.13;;;24.75;63.11
7333;BME280;3707;43.618;25.342;2022-07-23T02:05:48;100087.41;;;24.68;61.53
7333;BME280;3707;43.618;25.342;2022-07-23T02:08:15;100095.22;;;24.71;61.43
7333;BME280;3707;43.618;25.342;2022-07-23T02:10:42;100101.41;;;24.72;62.99
7333;BME280;3707;43.618;25.342;2022-07-23T02:13:09;100081.28;;;24.66;62.09
7333;BME280;3707;43.618;25.342;2022-07-23T02:15:37;100102.66;;;24.83;60.70
7333;BME280;3707;43.618;25.342;2022-07-23T02:18:04;100087.25;;;24.71;60.71
7333;BME280;3707;43.618;25.342;2022-07-23T02:20:31;100104.03;;;24.72;61.11
7333;BME280;3707;43.618;25.342;2022-07-23T02:22:58;100103.72;;;24.79;60.67
7333;BME280;3707;43.618;25.342;2022-07-23T02:25:25;100107.44;;;24.75;61.31
7333;BME280;3707;43.618;25.342;2022-07-23T02:27:51;100078.09;;;24.58;63.10
7333;BME280;3707;43.618;25.342;2022-07-23T02:30:18;100100.91;;;24.62;63.91
7333;BME280;3707;43.618;25.342;2022-07-23T02:32:46;100105.41;;;24.60;64.87
7333;BME280;3707;43.618;25.342;2022-07-23T02:35:13;100110.31;;;24.49;65.15
7333;BME280;3707;43.618;25.342;2022-07-23T02:37:40;100112.16;;;24.47;65.81
7333;BME280;3707;43.618;25.342;2022-07-23T02:40:07;100099.88;;;24.44;65.35
7333;BME280;3707;43.618;25.342;2022-07-23T02:42:35;100105.41;;;24.40;65.66
7333;BME280;3707;43.618;25.342;2022-07-23T02:45:02;100086.41;;;24.29;65.51
7333;BME280;3707;43.618;25.342;2022-07-23T02:47:29;100108.84;;;24.42;65.66
7333;BME280;3707;43.618;25.342;2022-07-23T02:49:58;100115.13;;;24.39;65.28
7333;BME280;3707;43.618;25.342;2022-07-23T02:52:25;100119.09;;;24.29;66.04
7333;BME280;3707;43.618;25.342;2022-07-23T02:54:52;100113.03;;;24.26;66.51
7333;BME280;3707;43.618;25.342;2022-07-23T02:57:19;100105.44;;;24.16;67.39
7333;BME280;3707;43.618;25.342;2022-07-23T02:59:46;100127.94;;;24.28;68.63
7333;BME280;3707;43.618;25.342;2022-07-23T03:02:12;100110.22;;;24.07;70.11
7333;BME280;3707;43.618;25.342;2022-07-23T03:04:39;100124.34;;;24.07;75.44
7333;BME280;3707;43.618;25.342;2022-07-23T03:07:09;100122.16;;;24.18;76.67
7333;BME280;3707;43.618;25.342;2022-07-23T03:09:36;100109.09;;;24.12;76.60
7333;BME280;3707;43.618;25.342;2022-07-23T03:12:03;100122.78;;;24.25;76.53
7333;BME280;3707;43.618;25.342;2022-07-23T03:14:30;100111.56;;;24.18;73.99
7333;BME280;3707;43.618;25.342;2022-07-23T03:16:56;100126.31;;;24.26;73.75
7333;BME280;3707;43.618;25.342;2022-07-23T03:19:25;100120.31;;;24.21;76.18
7333;BME280;3707;43.618;25.342;2022-07-23T03:21:52;100135.47;;;24.39;84.10
7333;BME280;3707;43.618;25.342;2022-07-23T03:24:20;100125.28;;;24.50;86.92
7333;BME280;3707;43.618;25.342;2022-07-23T03:26:49;100129.53;;;24.54;85.57
7333;BME280;3707;43.618;25.342;2022-07-23T03:29:15;100128.22;;;24.64;83.18
7333;BME280;3707;43.618;25.342;2022-07-23T03:31:42;100085.66;;;24.47;78.26
7333;BME280;3707;43.618;25.342;2022-07-23T03:34:09;100140.22;;;24.94;78.72
7333;BME280;3707;43.618;25.342;2022-07-23T03:36:36;100142.03;;;25.14;71.91
7333;BME280;3707;43.618;25.342;2022-07-23T03:39:03;100141.00;;;25.37;76.80
7333;BME280;3707;43.618;25.342;2022-07-23T03:41:32;100157.19;;;25.51;80.52
7333;BME280;3707;43.618;25.342;2022-07-23T03:43:58;100142.25;;;25.48;78.32
7333;BME280;3707;43.618;25.342;2022-07-23T03:46:25;100166.78;;;25.74;76.80
7333;BME280;3707;43.618;25.342;2022-07-23T03:48:52;100162.25;;;25.76;76.12
7333;BME280;3707;43.618;25.342;2022-07-23T03:51:19;100165.94;;;25.92;71.49
7333;BME280;3707;43.618;25.342;2022-07-23T03:53:46;100155.53;;;26.06;68.31
7333;BME280;3707;43.618;25.342;2022-07-23T03:56:14;100164.00;;;26.14;67.40
7333;BME280;3707;43.618;25.342;2022-07-23T03:58:42;100136.28;;;26.38;65.71
7333;BME280;3707;43.618;25.342;2022-07-23T04:01:10;100163.22;;;26.67;64.17
7333;BME280;3707;43.618;25.342;2022-07-23T04:03:37;100163.38;;;26.99;63.24
7333;BME280;3707;43.618;25.342;2022-07-23T04:06:04;100155.56;;;27.29;61.96
7333;BME280;3707;43.618;25.342;2022-07-23T04:08:32;100128.09;;;27.46;60.22
7333;BME280;3707;43.618;25.342;2022-07-23T04:10:58;100163.06;;;28.04;60.37
7333;BME280;3707;43.618;25.342;2022-07-23T04:13:25;100160.53;;;28.49;59.71
7333;BME280;3707;43.618;25.342;2022-07-23T04:15:54;100168.66;;;28.62;59.73
7333;BME280;3707;43.618;25.342;2022-07-23T04:18:20;100161.53;;;28.63;59.21
7333;BME280;3707;43.618;25.342;2022-07-23T04:20:50;100172.53;;;28.88;57.26
7333;BME280;3707;43.618;25.342;2022-07-23T04:23:17;100177.66;;;29.07;57.33
7333;BME280;3707;43.618;25.342;2022-07-23T04:25:44;100188.63;;;29.46;56.75
7333;BME280;3707;43.618;25.342;2022-07-23T04:28:10;100191.53;;;29.71;56.31
7333;BME280;3707;43.618;25.342;2022-07-23T04:30:37;100198.56;;;29.58;56.27
7333;BME280;3707;43.618;25.342;2022-07-23T04:33:05;100199.47;;;29.87;54.12
7333;BME280;3707;43.618;25.342;2022-07-23T04:35:33;100188.88;;;29.85;53.63
7333;BME280;3707;43.618;25.342;2022-07-23T04:38:00;100206.78;;;30.26;52.94
7333;BME280;3707;43.618;25.342;2022-07-23T04:40:27;100173.22;;;30.48;50.82
7333;BME280;3707;43.618;25.342;2022-07-23T04:42:54;100209.09;;;31.00;51.20
7333;BME280;3707;43.618;25.342;2022-07-23T04:45:21;100194.88;;;30.85;51.10
7333;BME280;3707;43.618;25.342;2022-07-23T04:47:49;100185.25;;;30.68;49.96
7333;BME280;3707;43.618;25.342;2022-07-23T04:50:17;100181.38;;;31.26;47.74
7333;BME280;3707;43.618;25.342;2022-07-23T04:52:46;100214.66;;;31.61;45.67
7333;BME280;3707;43.618;25.342;2022-07-23T04:55:13;100212.41;;;32.06;45.00
7333;BME280;3707;43.618;25.342;2022-07-23T04:57:40;100210.47;;;32.08;43.51
7333;BME280;3707;43.618;25.342;2022-07-23T05:00:08;100230.31;;;32.54;42.76
7333;BME280;3707;43.618;25.342;2022-07-23T05:02:36;100226.31;;;32.72;41.59
7333;BME280;3707;43.618;25.342;2022-07-23T05:05:03;100228.91;;;32.74;41.47
7333;BME280;3707;43.618;25.342;2022-07-23T05:07:31;100219.72;;;32.53;41.68
7333;BME280;3707;43.618;25.342;2022-07-23T05:09:58;100209.28;;;32.84;40.46
7333;BME280;3707;43.618;25.342;2022-07-23T05:12:25;100232.38;;;32.63;39.95
7333;BME280;3707;43.618;25.342;2022-07-23T05:14:52;100233.91;;;33.02;39.06
7333;BME280;3707;43.618;25.342;2022-07-23T05:17:19;100241.06;;;32.90;38.74
7333;BME280;3707;43.618;25.342;2022-07-23T05:19:46;100232.44;;;32.74;39.78
7333;BME280;3707;43.618;25.342;2022-07-23T05:22:12;100243.56;;;32.44;39.77
7333;BME280;3707;43.618;25.342;2022-07-23T05:24:41;100243.91;;;32.76;39.86
7333;BME280;3707;43.618;25.342;2022-07-23T05:27:08;100241.19;;;32.53;39.55
7333;BME280;3707;43.618;25.342;2022-07-23T05:29:35;100248.34;;;32.16;40.75
7333;BME280;3707;43.618;25.342;2022-07-23T05:32:02;100221.28;;;31.93;40.47
7333;BME280;3707;43.618;25.342;2022-07-23T05:34:28;100227.19;;;31.48;41.19
7333;BME280;3707;43.618;25.342;2022-07-23T05:36:55;100240.44;;;31.37;42.03
7333;BME280;3707;43.618;25.342;2022-07-23T05:39:22;100237.22;;;31.71;41.17
7333;BME280;3707;43.618;25.342;2022-07-23T05:41:50;100237.63;;;32.28;40.90
7333;BME280;3707;43.618;25.342;2022-07-23T05:44:17;100233.00;;;32.54;41.14
7333;BME280;3707;43.618;25.342;2022-07-23T05:46:44;100240.50;;;32.74;40.94
7333;BME280;3707;43.618;25.342;2022-07-23T05:49:11;100225.38;;;32.12;41.68
7333;BME280;3707;43.618;25.342;2022-07-23T05:51:37;100236.47;;;31.82;43.12
7333;BME280;3707;43.618;25.342;2022-07-23T05:54:04;100240.72;;;31.97;42.57
7333;BME280;3707;43.618;25.342;2022-07-23T05:56:31;100239.97;;;31.82;42.46
7333;BME280;3707;43.618;25.342;2022-07-23T05:58:59;100221.69;;;31.37;43.61
7333;BME280;3707;43.618;25.342;2022-07-23T06:01:26;100241.41;;;31.36;44.90
7333;BME280;3707;43.618;25.342;2022-07-23T06:03:53;100236.63;;;31.02;44.52
7333;BME280;3707;43.618;25.342;2022-07-23T06:06:20;100238.84;;;31.47;45.13
7333;BME280;3707;43.618;25.342;2022-07-23T06:08:47;100243.78;;;31.28;45.04
7333;BME280;3707;43.618;25.342;2022-07-23T06:11:13;100222.56;;;31.37;45.06
7333;BME280;3707;43.618;25.342;2022-07-23T06:13:40;100223.50;;;31.24;45.81
7333;BME280;3707;43.618;25.342;2022-07-23T06:16:09;100237.91;;;31.35;44.60
7333;BME280;3707;43.618;25.342;2022-07-23T06:18:35;100244.81;;;31.52;44.85
7333;BME280;3707;43.618;25.342;2022-07-23T06:21:02;100234.34;;;31.35;47.14
7333;BME280;3707;43.618;25.342;2022-07-23T06:23:29;100228.78;;;30.98;45.40
7333;BME280;3707;43.618;25.342;2022-07-23T06:25:56;100192.03;;;30.33;46.29
7333;BME280;3707;43.618;25.342;2022-07-23T06:28:23;100245.25;;;30.92;46.24
7333;BME280;3707;43.618;25.342;2022-07-23T06:30:50;100240.28;;;30.60;46.65
7333;BME280;3707;43.618;25.342;2022-07-23T06:33:18;100242.69;;;30.36;47.20
7333;BME280;3707;43.618;25.342;2022-07-23T06:35:45;100250.72;;;30.22;50.21
7333;BME280;3707;43.618;25.342;2022-07-23T06:38:12;100227.34;;;29.97;50.87
7333;BME280;3707;43.618;25.342;2022-07-23T06:40:38;100241.53;;;29.83;50.87
7333;BME280;3707;43.618;25.342;2022-07-23T06:43:05;100244.84;;;29.88;50.69
7333;BME280;3707;43.618;25.342;2022-07-23T06:45:32;100244.22;;;29.83;51.33
7333;BME280;3707;43.618;25.342;2022-07-23T06:47:59;100245.97;;;29.84;52.38
7333;BME280;3707;43.618;25.342;2022-07-23T06:50:29;100244.78;;;29.74;53.00
7333;BME280;3707;43.618;25.342;2022-07-23T06:52:56;100249.94;;;29.77;52.50
7333;BME280;3707;43.618;25.342;2022-07-23T06:55:23;100241.91;;;29.63;52.65
7333;BME280;3707;43.618;25.342;2022-07-23T06:57:49;100232.16;;;29.48;53.56
7333;BME280;3707;43.618;25.342;2022-07-23T07:00:16;100238.94;;;29.39;53.38
7333;BME280;3707;43.618;25.342;2022-07-23T07:02:43;100222.75;;;29.27;56.14
7333;BME280;3707;43.618;25.342;2022-07-23T07:05:10;100235.31;;;29.69;57.80
7333;BME280;3707;43.618;25.342;2022-07-23T07:07:38;100241.03;;;30.07;54.95
7333;BME280;3707;43.618;25.342;2022-07-23T07:10:06;100224.56;;;30.13;55.66
7333;BME280;3707;43.618;25.342;2022-07-23T07:12:33;100233.53;;;30.26;54.22
7333;BME280;3707;43.618;25.342;2022-07-23T07:15:00;100238.91;;;30.12;53.63
7333;BME280;3707;43.618;25.342;2022-07-23T07:17:27;100231.84;;;30.11;52.65
7333;BME280;3707;43.618;25.342;2022-07-23T07:19:54;100242.69;;;30.36;53.66
7333;BME280;3707;43.618;25.342;2022-07-23T07:22:20;100231.03;;;30.37;53.44
7333;BME280;3707;43.618;25.342;2022-07-23T07:24:49;100230.00;;;30.11;54.00
7333;BME280;3707;43.618;25.342;2022-07-23T07:27:15;100242.16;;;30.17;53.33
7333;BME280;3707;43.618;25.342;2022-07-23T07:29:42;100237.75;;;30.01;53.05
7333;BME280;3707;43.618;25.342;2022-07-23T07:32:09;100237.88;;;30.14;52.66
7333;BME280;3707;43.618;25.342;2022-07-23T07:34:36;100236.03;;;30.00;53.75
7333;BME280;3707;43.618;25.342;2022-07-23T07:37:03;100233.66;;;30.24;52.07
7333;BME280;3707;43.618;25.342;2022-07-23T07:39:30;100238.13;;;30.24;50.74
7333;BME280;3707;43.618;25.342;2022-07-23T07:41:58;100231.66;;;30.14;49.77
7333;BME280;3707;43.618;25.342;2022-07-23T07:44:25;100237.75;;;30.01;48.32
7333;BME280;3707;43.618;25.342;2022-07-23T07:46:52;100248.41;;;29.73;46.87
7333;BME280;3707;43.618;25.342;2022-07-23T07:49:19;100226.63;;;29.79;46.76
7333;BME280;3707;43.618;25.342;2022-07-23T07:51:46;100238.34;;;29.92;45.85
7333;BME280;3707;43.618;25.342;2022-07-23T07:54:13;100245.03;;;30.14;46.05
7333;BME280;3707;43.618;25.342;2022-07-23T07:56:40;100228.00;;;30.15;46.22
7333;BME280;3707;43.618;25.342;2022-07-23T07:59:08;100230.38;;;30.33;47.30
7333;BME280;3707;43.618;25.342;2022-07-23T08:01:36;100234.84;;;30.47;47.72
7333;BME280;3707;43.618;25.342;2022-07-23T08:04:03;100224.03;;;30.63;47.94
7333;BME280;3707;43.618;25.342;2022-07-23T08:06:30;100231.69;;;30.55;48.10
7333;BME280;3707;43.618;25.342;2022-07-23T08:08:57;100229.16;;;30.66;49.35
7333;BME280;3707;43.618;25.342;2022-07-23T08:11:24;100217.16;;;30.85;48.58
7333;BME280;3707;43.618;25.342;2022-07-23T08:13:51;100192.69;;;30.50;48.77
7333;BME280;3707;43.618;25.342;2022-07-23T08:16:19;100217.66;;;30.78;48.77
7333;BME280;3707;43.618;25.342;2022-07-23T08:18:46;100217.88;;;31.02;48.85
7333;BME280;3707;43.618;25.342;2022-07-23T08:21:13;100207.44;;;31.24;49.83
7333;BME280;3707;43.618;25.342;2022-07-23T08:23:39;100214.59;;;31.36;49.37
7333;BME280;3707;43.618;25.342;2022-07-23T08:26:06;100207.13;;;31.41;48.74
7333;BME280;3707;43.618;25.342;2022-07-23T08:28:33;100216.97;;;31.40;49.97
7333;BME280;3707;43.618;25.342;2022-07-23T08:31:00;100208.31;;;31.50;49.83
7333;BME280;3707;43.618;25.342;2022-07-23T08:33:28;100212.09;;;31.60;51.11
7333;BME280;3707;43.618;25.342;2022-07-23T08:35:55;100208.66;;;31.70;49.55
7333;BME280;3707;43.618;25.342;2022-07-23T08:38:22;100203.75;;;31.64;48.53
7333;BME280;3707;43.618;25.342;2022-07-23T08:40:52;100185.94;;;31.63;49.23
7333;BME280;3707;43.618;25.342;2022-07-23T08:43:20;100210.56;;;31.93;50.11
7333;BME280;3707;43.618;25.342;2022-07-23T08:45:50;100185.91;;;31.76;47.45
7333;BME280;3707;43.618;25.342;2022-07-23T08:48:19;100200.28;;;31.87;47.43
7333;BME280;3707;43.618;25.342;2022-07-23T08:50:49;100179.88;;;31.98;47.00
7333;BME280;3707;43.618;25.342;2022-07-23T08:53:18;100195.50;;;32.29;46.08
7333;BME280;3707;43.618;25.342;2022-07-23T08:55:47;100179.75;;;32.24;45.78
7333;BME280;3707;43.618;25.342;2022-07-23T08:58:15;100209.44;;;32.34;45.51
7333;BME280;3707;43.618;25.342;2022-07-23T09:00:42;100212.44;;;32.42;45.23
7333;BME280;3707;43.618;25.342;2022-07-23T09:03:16;100213.25;;;32.55;44.77
7333;BME280;3707;43.618;25.342;2022-07-23T09:05:43;100186.03;;;32.36;44.13
7333;BME280;3707;43.618;25.342;2022-07-23T09:08:12;100204.38;;;32.42;42.72
7333;BME280;3707;43.618;25.342;2022-07-23T09:10:51;100216.03;;;32.54;41.46
7333;BME280;3707;43.618;25.342;2022-07-23T09:13:33;100215.69;;;32.58;41.31
7333;BME280;3707;43.618;25.342;2022-07-23T09:16:04;100205.91;;;32.70;40.40
7333;BME280;3707;43.618;25.342;2022-07-23T09:18:43;100217.97;;;32.88;40.88
7333;BME280;3707;43.618;25.342;2022-07-23T09:21:16;100211.41;;;32.92;40.29
7333;BME280;3707;43.618;25.342;2022-07-23T09:23:46;100216.72;;;32.81;39.83
7333;BME280;3707;43.618;25.342;2022-07-23T09:26:21;100209.06;;;32.87;39.30
7333;BME280;3707;43.618;25.342;2022-07-23T09:28:55;100213.94;;;32.93;39.32
7333;BME280;3707;43.618;25.342;2022-07-23T09:31:23;100225.28;;;33.10;39.11
7333;BME280;3707;43.618;25.342;2022-07-23T09:33:50;100208.69;;;33.16;38.42
7333;BME280;3707;43.618;25.342;2022-07-23T09:36:27;100220.09;;;33.30;38.32
7333;BME280;3707;43.618;25.342;2022-07-23T09:38:56;100216.22;;;33.34;38.43
7333;BME280;3707;43.618;25.342;2022-07-23T09:41:23;100216.63;;;33.52;38.81
7333;BME280;3707;43.618;25.342;2022-07-23T09:43:55;100217.41;;;33.65;37.84
7333;BME280;3707;43.618;25.342;2022-07-23T09:46:23;100204.25;;;33.61;38.34
7333;BME280;3707;43.618;25.342;2022-07-23T09:48:51;100216.75;;;33.62;38.32
7333;BME280;3707;43.618;25.342;2022-07-23T09:51:18;100211.06;;;33.77;38.09
7333;BME280;3707;43.618;25.342;2022-07-23T09:53:49;100177.81;;;33.67;37.83
7333;BME280;3707;43.618;25.342;2022-07-23T09:56:20;100193.31;;;33.86;37.44
7333;BME280;3707;43.618;25.342;2022-07-23T09:58:49;100193.69;;;33.81;37.84
7333;BME280;3707;43.618;25.342;2022-07-23T10:01:17;100190.50;;;33.87;37.79
7333;BME280;3707;43.618;25.342;2022-07-23T10:03:46;100200.16;;;34.12;37.65
7333;BME280;3707;43.618;25.342;2022-07-23T10:06:13;100208.88;;;34.27;37.86
7333;BME280;3707;43.618;25.342;2022-07-23T10:08:41;100189.41;;;34.23;37.13
7333;BME280;3707;43.618;25.342;2022-07-23T10:11:09;100201.38;;;34.42;37.49
7333;BME280;3707;43.618;25.342;2022-07-23T10:13:39;100191.75;;;34.17;37.22
7333;BME280;3707;43.618;25.342;2022-07-23T10:16:18;100174.50;;;34.19;36.70
7333;BME280;3707;43.618;25.342;2022-07-23T10:18:46;100191.66;;;34.50;36.87
7333;BME280;3707;43.618;25.342;2022-07-23T10:21:18;100192.75;;;34.59;36.05
7333;BME280;3707;43.618;25.342;2022-07-23T10:23:57;100190.47;;;34.43;36.16
7333;BME280;3707;43.618;25.342;2022-07-23T10:26:32;100186.31;;;34.39;36.54
7333;BME280;3707;43.618;25.342;2022-07-23T10:29:14;100163.03;;;34.49;35.58
7333;BME280;3707;43.618;25.342;2022-07-23T10:31:52;100174.75;;;34.70;33.91
7333;BME280;3707;43.618;25.342;2022-07-23T10:34:30;100170.16;;;34.82;33.19
7333;BME280;3707;43.618;25.342;2022-07-23T10:37:07;100152.09;;;34.94;33.97
7333;BME280;3707;43.618;25.342;2022-07-23T10:39:39;100160.78;;;34.97;34.61
7333;BME280;3707;43.618;25.342;2022-07-23T10:42:10;100164.38;;;35.18;32.79
7333;BME280;3707;43.618;25.342;2022-07-23T10:44:40;100156.06;;;35.10;31.47
7333;BME280;3707;43.618;25.342;2022-07-23T10:47:08;100161.69;;;35.07;31.80
7333;BME280;3707;43.618;25.342;2022-07-23T10:49:50;100132.38;;;34.93;31.40
7333;BME280;3707;43.618;25.342;2022-07-23T10:52:24;100153.50;;;35.09;30.63
7333;BME280;3707;43.618;25.342;2022-07-23T10:54:54;100148.75;;;35.01;30.25
7333;BME280;3707;43.618;25.342;2022-07-23T10:57:22;100150.78;;;35.20;30.97
7333;BME280;3707;43.618;25.342;2022-07-23T11:00:11;100143.56;;;35.09;30.40
7333;BME280;3707;43.618;25.342;2022-07-23T11:02:40;100139.03;;;35.10;29.63
7333;BME280;3707;43.618;25.342;2022-07-23T11:05:08;100141.34;;;35.14;28.37
7333;BME280;3707;43.618;25.342;2022-07-23T11:07:36;100146.56;;;35.27;29.40
7333;BME280;3707;43.618;25.342;2022-07-23T11:10:04;100143.81;;;35.48;28.86
7333;BME280;3707;43.618;25.342;2022-07-23T11:12:35;100138.75;;;35.54;28.49
7333;BME280;3707;43.618;25.342;2022-07-23T11:15:05;100134.75;;;35.79;29.30
7333;BME280;3707;43.618;25.342;2022-07-23T11:17:36;100127.44;;;36.00;29.67
7333;BME280;3707;43.618;25.342;2022-07-23T11:20:23;100127.59;;;35.99;28.91
7333;BME280;3707;43.618;25.342;2022-07-23T11:22:52;100130.22;;;36.10;29.50
7333;BME280;3707;43.618;25.342;2022-07-23T11:25:32;100110.03;;;36.14;29.15
7333;BME280;3707;43.618;25.342;2022-07-23T11:28:10;100086.06;;;35.80;28.83
7333;BME280;3707;43.618;25.342;2022-07-23T11:30:39;100106.34;;;36.15;29.38
7333;BME280;3707;43.618;25.342;2022-07-23T11:33:19;100104.09;;;36.20;28.88
7333;BME280;3707;43.618;25.342;2022-07-23T11:35:49;100114.31;;;36.26;29.85
7333;BME280;3707;43.618;25.342;2022-07-23T11:38:17;100107.81;;;36.38;29.49
7333;BME280;3707;43.618;25.342;2022-07-23T11:40:48;100105.13;;;36.57;29.89
7333;BME280;3707;43.618;25.342;2022-07-23T11:43:15;100106.09;;;36.27;29.49
7333;BME280;3707;43.618;25.342;2022-07-23T11:45:44;100102.06;;;36.12;29.42
7333;BME280;3707;43.618;25.342;2022-07-23T11:48:19;100090.59;;;36.29;29.22
7333;BME280;3707;43.618;25.342;2022-07-23T11:50:46;100106.94;;;36.28;28.59
7333;BME280;3707;43.618;25.342;2022-07-23T11:53:21;100089.22;;;35.95;29.55
7333;BME280;3707;43.618;25.342;2022-07-23T11:55:48;100098.09;;;36.16;28.96
7333;BME280;3707;43.618;25.342;2022-07-23T11:58:15;100055.97;;;36.04;29.82
7333;BME280;3707;43.618;25.342;2022-07-23T12:00:42;100103.84;;;36.42;27.95
7333;BME280;3707;43.618;25.342;2022-07-23T12:03:09;100099.13;;;36.44;27.11
7333;BME280;3707;43.618;25.342;2022-07-23T12:05:38;100072.00;;;36.55;27.44
7333;BME280;3707;43.618;25.342;2022-07-23T12:08:06;100091.19;;;36.81;26.74
7333;BME280;3707;43.618;25.342;2022-07-23T12:10:35;100090.78;;;36.66;26.82
7333;BME280;3707;43.618;25.342;2022-07-23T12:13:04;100095.84;;;36.41;25.77
7333;BME280;3707;43.618;25.342;2022-07-23T12:15:33;100091.00;;;36.54;26.33
7333;BME280;3707;43.618;25.342;2022-07-23T12:18:04;100088.19;;;36.65;26.52
7333;BME280;3707;43.618;25.342;2022-07-23T12:20:33;100082.50;;;36.78;26.95
7333;BME280;3707;43.618;25.342;2022-07-23T12:23:03;100093.44;;;36.86;25.21
7333;BME280;3707;43.618;25.342;2022-07-23T12:25:32;100089.44;;;36.90;24.20
7333;BME280;3707;43.618;25.342;2022-07-23T12:28:02;100085.47;;;37.13;24.28
7333;BME280;3707;43.618;25.342;2022-07-23T12:30:32;100071.94;;;37.03;24.17
7333;BME280;3707;43.618;25.342;2022-07-23T12:32:59;100086.41;;;37.31;25.16
7333;BME280;3707;43.618;25.342;2022-07-23T12:35:32;100081.91;;;37.12;24.36
7333;BME280;3707;43.618;25.342;2022-07-23T12:38:03;100073.91;;;37.11;24.56
7333;BME280;3707;43.618;25.342;2022-07-23T12:40:32;100066.22;;;37.16;25.71
7333;BME280;3707;43.618;25.342;2022-07-23T12:43:01;100071.09;;;37.12;24.67
7333;BME280;3707;43.618;25.342;2022-07-23T12:45:42;100081.00;;;37.31;24.91
7333;BME280;3707;43.618;25.342;2022-07-23T12:48:16;100071.94;;;37.59;25.01
7333;BME280;3707;43.618;25.342;2022-07-23T12:50:47;100075.38;;;37.79;25.44
7333;BME280;3707;43.618;25.342;2022-07-23T12:53:18;100063.38;;;37.82;25.01
7333;BME280;3707;43.618;25.342;2022-07-23T12:55:46;100064.66;;;37.60;25.37
7333;BME280;3707;43.618;25.342;2022-07-23T12:58:15;100068.19;;;37.60;24.62
7333;BME280;3707;43.618;25.342;2022-07-23T13:01:06;100064.31;;;37.72;25.49
7333;BME280;3707;43.618;25.342;2022-07-23T13:03:37;100058.97;;;37.53;25.31
7333;BME280;3707;43.618;25.342;2022-07-23T13:06:05;100057.44;;;37.41;25.45